Home   Weather   Italy   Ancona   Past weeks
Flag for Italy

Past Weather in Ancona, Italy — Yesterday and Last 2 Weeks

Currently: 82 °F. Partly sunny. (Weather station: Falconara, Italy). See more current weather

Past Weather in Ancona — Graph

°F

Ancona Temperature Yesterday

Maximum temperature yesterday: 90 °F (at 12:50 pm)
Minimum temperature yesterday: 75 °F (at 6:20 am)
Average temperature yesterday: 85 °F

High & Low Weather Summary for the Past Weeks

 TemperatureHumidityPressure
High99 °F (Jul 12, 3:20 pm)94% (Jul 9, 1:50 am)30.01 "Hg (Jul 9, 1:50 am)
Low66 °F (Jul 6, 5:50 am)26% (Jul 14, 5:50 pm)29.77 "Hg (Jul 12, 5:20 pm)
Average82 °F58%29.90 "Hg
* Reported Jul 5 10:20 am — Jul 20 10:20 am, Ancona. Weather by CustomWeather, © 2024

Note: Actual official high and low records may vary slightly from our data, if they occured in-between our weather recording intervals... More about our weather records

Ancona Weather History for the Previous 24 Hours

Scroll right to see more
 ConditionsComfort  
Time TempWeatherWind HumidityBarometerVisibility
10:20 am
Sat, Jul 20
82 °FClear.6 mph58%29.83 "HgN/A
9:20 am81 °FPassing clouds.12 mph58%29.83 "HgN/A
8:50 am81 °FPassing clouds.12 mph62%29.83 "HgN/A
8:20 am79 °FPartly sunny.15 mph65%29.86 "HgN/A
7:50 am77 °FMostly cloudy.20 mph74%29.86 "HgN/A
7:20 am75 °FScattered clouds.21 mph74%29.83 "HgN/A
6:50 am79 °FPartly sunny.18 mph65%29.83 "HgN/A
6:20 am75 °FClear.2 mph78%29.80 "HgN/A
5:50 am77 °FClear.3 mph69%29.80 "HgN/A
5:20 am77 °FPassing clouds.6 mph74%29.80 "HgN/A
4:50 am77 °FPartly cloudy.5 mph74%29.80 "HgN/A
4:20 am77 °FPassing clouds.5 mph74%29.80 "HgN/A
3:50 am77 °FPassing clouds.3 mph74%29.80 "HgN/A
3:20 am77 °FPassing clouds.3 mph74%29.80 "HgN/A
2:50 am77 °FPassing clouds.3 mph79%29.80 "HgN/A
2:20 am77 °FPassing clouds.3 mph79%29.83 "HgN/A
1:50 am77 °FPassing clouds.3 mph79%29.83 "HgN/A
1:20 am77 °FClear.3 mph79%29.83 "HgN/A
12:50 am79 °FClear.3 mph74%29.86 "HgN/A
12:20 am79 °FClear.3 mph74%29.86 "HgN/A
11:50 pm
Fri, Jul 19
79 °FClear.3 mph74%29.86 "HgN/A
11:20 pm81 °FClear.3 mph70%29.89 "HgN/A
10:50 pm81 °FPassing clouds.2 mph70%29.89 "HgN/A
10:20 pm82 °FPassing clouds.2 mph66%29.89 "HgN/A
9:50 pm82 °FClear.1 mph70%29.89 "HgN/A
9:20 pm84 °FClear.2 mph66%29.86 "HgN/A
8:20 pm86 °FClear.2 mph62%29.86 "HgN/A
7:50 pm86 °FClear.5 mph62%29.86 "HgN/A
7:20 pm86 °FClear.7 mph62%29.86 "HgN/A
6:50 pm88 °FClear.7 mph59%29.86 "HgN/A
6:20 pm88 °FClear.8 mph59%29.86 "HgN/A
5:50 pm88 °FClear.9 mph59%29.86 "HgN/A
5:20 pm88 °FPassing clouds.10 mph59%29.89 "HgN/A
4:50 pm90 °FClear.12 mph59%29.89 "HgN/A
4:20 pm88 °FClear.12 mph62%29.92 "HgN/A
3:20 pm88 °FClear.13 mph62%29.92 "HgN/A
2:20 pm90 °FClear.13 mph55%29.95 "HgN/A
1:50 pm88 °FPassing clouds.13 mph59%29.95 "HgN/A
1:20 pm90 °FClear.13 mph46%29.95 "HgN/A
12:50 pm90 °FPassing clouds.13 mph49%29.98 "HgN/A
12:20 pm88 °FClear.14 mph59%29.98 "HgN/A
Weather by CustomWeather, © 2024

See weather overview